sensor_id;sensor_type;location;lat;lon;timestamp;temperature;humidity
7204;DHT22;3643;52.460;13.322;2022-09-09T00:01:28;14.30;99.90
7204;DHT22;3643;52.460;13.322;2022-09-09T00:04:11;14.30;99.90
7204;DHT22;3643;52.460;13.322;2022-09-09T00:06:45;14.20;99.90
7204;DHT22;3643;52.460;13.322;2022-09-09T00:09:16;15.30;99.90
7204;DHT22;3643;52.460;13.322;2022-09-09T00:11:49;14.30;99.90
7204;DHT22;3643;52.460;13.322;2022-09-09T00:14:25;14.20;99.90
7204;DHT22;3643;52.460;13.322;2022-09-09T00:17:01;14.20;99.90
7204;DHT22;3643;52.460;13.322;2022-09-09T00:19:36;14.20;99.90
7204;DHT22;3643;52.460;13.322;2022-09-09T00:22:15;14.20;99.90
7204;DHT22;3643;52.460;13.322;2022-09-09T00:24:45;14.20;99.90
7204;DHT22;3643;52.460;13.322;2022-09-09T00:27:22;14.10;99.90
7204;DHT22;3643;52.460;13.322;2022-09-09T00:29:57;14.10;99.90
7204;DHT22;3643;52.460;13.322;2022-09-09T00:32:30;14.00;99.90
7204;DHT22;3643;52.460;13.322;2022-09-09T00:35:02;14.00;99.90
7204;DHT22;3643;52.460;13.322;2022-09-09T00:37:32;14.00;99.90
7204;DHT22;3643;52.460;13.322;2022-09-09T00:40:17;14.10;99.90
7204;DHT22;3643;52.460;13.322;2022-09-09T00:42:51;14.10;99.90
7204;DHT22;3643;52.460;13.322;2022-09-09T00:45:43;14.10;99.90
7204;DHT22;3643;52.460;13.322;2022-09-09T00:48:13;14.00;99.90
7204;DHT22;3643;52.460;13.322;2022-09-09T00:50:49;14.00;99.90
7204;DHT22;3643;52.460;13.322;2022-09-09T00:53:33;13.90;99.90
7204;DHT22;3643;52.460;13.322;2022-09-09T00:56:12;13.80;99.90
7204;DHT22;3643;52.460;13.322;2022-09-09T00:58:43;13.80;99.90
7204;DHT22;3643;52.460;13.322;2022-09-09T01:01:19;13.80;99.90
7204;DHT22;3643;52.460;13.322;2022-09-09T01:03:51;13.80;99.90
7204;DHT22;3643;52.460;13.322;2022-09-09T01:06:24;13.80;99.90
7204;DHT22;3643;52.460;13.322;2022-09-09T01:09:04;13.70;99.90
7204;DHT22;3643;52.460;13.322;2022-09-09T01:11:47;13.70;99.90
7204;DHT22;3643;52.460;13.322;2022-09-09T01:14:29;13.70;99.90
7204;DHT22;3643;52.460;13.322;2022-09-09T01:17:03;13.60;99.90
7204;DHT22;3643;52.460;13.322;2022-09-09T01:19:48;13.60;99.90
7204;DHT22;3643;52.460;13.322;2022-09-09T01:22:26;13.60;99.90
7204;DHT22;3643;52.460;13.322;2022-09-09T01:25:22;13.60;99.90
7204;DHT22;3643;52.460;13.322;2022-09-09T01:27:57;13.60;99.90
7204;DHT22;3643;52.460;13.322;2022-09-09T01:30:28;13.50;99.90
7204;DHT22;3643;52.460;13.322;2022-09-09T01:32:58;13.50;99.90
7204;DHT22;3643;52.460;13.322;2022-09-09T01:35:34;13.50;99.90
7204;DHT22;3643;52.460;13.322;2022-09-09T01:38:06;13.50;99.90
7204;DHT22;3643;52.460;13.322;2022-09-09T01:40:34;13.50;99.90
7204;DHT22;3643;52.460;13.322;2022-09-09T01:43:05;13.50;99.90
7204;DHT22;3643;52.460;13.322;2022-09-09T01:45:34;13.40;99.90
7204;DHT22;3643;52.460;13.322;2022-09-09T01:48:03;13.40;99.90
7204;DHT22;3643;52.460;13.322;2022-09-09T01:50:32;13.40;99.90
7204;DHT22;3643;52.460;13.322;2022-09-09T01:53:02;13.40;99.90
7204;DHT22;3643;52.460;13.322;2022-09-09T01:55:32;13.40;99.90
7204;DHT22;3643;52.460;13.322;2022-09-09T01:58:15;13.40;99.90
7204;DHT22;3643;52.460;13.322;2022-09-09T02:00:51;13.40;99.90
7204;DHT22;3643;52.460;13.322;2022-09-09T02:03:26;13.40;99.90
7204;DHT22;3643;52.460;13.322;2022-09-09T02:06:03;13.40;99.90
7204;DHT22;3643;52.460;13.322;2022-09-09T02:08:38;13.40;99.90
7204;DHT22;3643;52.460;13.322;2022-09-09T02:11:13;13.40;99.90
7204;DHT22;3643;52.460;13.322;2022-09-09T02:13:47;13.40;99.90
7204;DHT22;3643;52.460;13.322;2022-09-09T02:16:21;13.40;99.90
7204;DHT22;3643;52.460;13.322;2022-09-09T02:18:55;13.40;99.90
7204;DHT22;3643;52.460;13.322;2022-09-09T02:21:24;13.40;99.90
7204;DHT22;3643;52.460;13.322;2022-09-09T02:23:58;13.40;99.90
7204;DHT22;3643;52.460;13.322;2022-09-09T02:26:27;13.30;99.90
7204;DHT22;3643;52.460;13.322;2022-09-09T02:28:58;13.30;99.90
7204;DHT22;3643;52.460;13.322;2022-09-09T02:31:30;13.30;99.90
7204;DHT22;3643;52.460;13.322;2022-09-09T02:34:05;13.30;99.90
7204;DHT22;3643;52.460;13.322;2022-09-09T02:36:36;13.30;99.90
7204;DHT22;3643;52.460;13.322;2022-09-09T02:39:07;13.30;99.90
7204;DHT22;3643;52.460;13.322;2022-09-09T02:41:38;13.30;99.90
7204;DHT22;3643;52.460;13.322;2022-09-09T02:44:11;13.30;99.90
7204;DHT22;3643;52.460;13.322;2022-09-09T02:46:56;13.20;99.90
7204;DHT22;3643;52.460;13.322;2022-09-09T02:49:34;13.20;99.90
7204;DHT22;3643;52.460;13.322;2022-09-09T02:52:13;13.20;99.90
7204;DHT22;3643;52.460;13.322;2022-09-09T02:54:43;13.20;99.90
7204;DHT22;3643;52.460;13.322;2022-09-09T02:57:20;13.20;99.90
7204;DHT22;3643;52.460;13.322;2022-09-09T02:59:52;13.20;99.90
7204;DHT22;3643;52.460;13.322;2022-09-09T03:02:22;13.20;99.90
7204;DHT22;3643;52.460;13.322;2022-09-09T03:04:52;13.10;99.90
7204;DHT22;3643;52.460;13.322;2022-09-09T03:07:21;13.10;99.90
7204;DHT22;3643;52.460;13.322;2022-09-09T03:09:49;13.10;99.90
7204;DHT22;3643;52.460;13.322;2022-09-09T03:12:18;13.20;99.90
7204;DHT22;3643;52.460;13.322;2022-09-09T03:14:46;13.20;99.90
7204;DHT22;3643;52.460;13.322;2022-09-09T03:17:16;13.10;99.90
7204;DHT22;3643;52.460;13.322;2022-09-09T03:19:45;13.10;99.90
7204;DHT22;3643;52.460;13.322;2022-09-09T03:22:14;13.10;99.90
7204;DHT22;3643;52.460;13.322;2022-09-09T03:24:45;13.10;99.90
7204;DHT22;3643;52.460;13.322;2022-09-09T03:27:14;13.10;99.90
7204;DHT22;3643;52.460;13.322;2022-09-09T03:29:42;13.10;99.90
7204;DHT22;3643;52.460;13.322;2022-09-09T03:32:12;13.00;99.90
7204;DHT22;3643;52.460;13.322;2022-09-09T03:34:42;13.10;99.90
7204;DHT22;3643;52.460;13.322;2022-09-09T03:37:10;13.10;99.90
7204;DHT22;3643;52.460;13.322;2022-09-09T03:39:39;13.10;99.90
7204;DHT22;3643;52.460;13.322;2022-09-09T03:42:07;13.10;99.90
7204;DHT22;3643;52.460;13.322;2022-09-09T03:44:36;13.00;99.90
7204;DHT22;3643;52.460;13.322;2022-09-09T03:47:05;13.00;99.90
7204;DHT22;3643;52.460;13.322;2022-09-09T03:49:33;12.90;99.90
7204;DHT22;3643;52.460;13.322;2022-09-09T03:52:03;12.90;99.90
7204;DHT22;3643;52.460;13.322;2022-09-09T03:54:32;12.90;99.90
7204;DHT22;3643;52.460;13.322;2022-09-09T03:57:01;12.90;99.90
7204;DHT22;3643;52.460;13.322;2022-09-09T03:59:30;13.00;99.90
7204;DHT22;3643;52.460;13.322;2022-09-09T04:01:58;12.90;99.90
7204;DHT22;3643;52.460;13.322;2022-09-09T04:04:27;12.90;99.90
7204;DHT22;3643;52.460;13.322;2022-09-09T04:06:55;12.90;99.90
7204;DHT22;3643;52.460;13.322;2022-09-09T04:09:25;12.90;99.90
7204;DHT22;3643;52.460;13.322;2022-09-09T04:11:54;12.80;99.90
7204;DHT22;3643;52.460;13.322;2022-09-09T04:14:24;12.80;99.90
7204;DHT22;3643;52.460;13.322;2022-09-09T04:16:56;12.80;99.90
7204;DHT22;3643;52.460;13.322;2022-09-09T04:19:26;12.80;99.90
7204;DHT22;3643;52.460;13.322;2022-09-09T04:21:55;12.80;99.90
7204;DHT22;3643;52.460;13.322;2022-09-09T04:24:25;12.70;99.90
7204;DHT22;3643;52.460;13.322;2022-09-09T04:26:56;12.70;99.90
7204;DHT22;3643;52.460;13.322;2022-09-09T04:29:24;12.70;99.90
7204;DHT22;3643;52.460;13.322;2022-09-09T04:31:53;12.70;99.90
7204;DHT22;3643;52.460;13.322;2022-09-09T04:34:21;12.70;99.90
7204;DHT22;3643;52.460;13.322;2022-09-09T04:36:50;12.70;99.90
7204;DHT22;3643;52.460;13.322;2022-09-09T04:39:19;12.70;99.90
7204;DHT22;3643;52.460;13.322;2022-09-09T04:41:49;12.80;99.90
7204;DHT22;3643;52.460;13.322;2022-09-09T04:44:18;12.80;99.90
7204;DHT22;3643;52.460;13.322;2022-09-09T04:46:47;12.80;99.90
7204;DHT22;3643;52.460;13.322;2022-09-09T04:49:15;12.90;99.90
7204;DHT22;3643;52.460;13.322;2022-09-09T04:51:45;12.90;99.90
7204;DHT22;3643;52.460;13.322;2022-09-09T04:54:14;13.00;99.90
7204;DHT22;3643;52.460;13.322;2022-09-09T04:56:42;13.00;99.90
7204;DHT22;3643;52.460;13.322;2022-09-09T04:59:12;13.00;99.90
7204;DHT22;3643;52.460;13.322;2022-09-09T05:01:41;13.00;99.90
7204;DHT22;3643;52.460;13.322;2022-09-09T05:04:10;13.10;99.90
7204;DHT22;3643;52.460;13.322;2022-09-09T05:06:39;13.10;99.90
7204;DHT22;3643;52.460;13.322;2022-09-09T05:09:07;13.20;99.90
7204;DHT22;3643;52.460;13.322;2022-09-09T05:11:35;13.30;99.90
7204;DHT22;3643;52.460;13.322;2022-09-09T05:14:05;13.40;99.90
7204;DHT22;3643;52.460;13.322;2022-09-09T05:16:34;13.50;99.90
7204;DHT22;3643;52.460;13.322;2022-09-09T05:19:03;13.60;99.90
7204;DHT22;3643;52.460;13.322;2022-09-09T05:21:31;13.50;99.90
7204;DHT22;3643;52.460;13.322;2022-09-09T05:24:00;13.40;99.90
7204;DHT22;3643;52.460;13.322;2022-09-09T05:26:29;13.40;99.90
7204;DHT22;3643;52.460;13.322;2022-09-09T05:28:58;13.40;99.90
7204;DHT22;3643;52.460;13.322;2022-09-09T05:31:30;13.40;99.90
7204;DHT22;3643;52.460;13.322;2022-09-09T05:34:03;13.50;99.90
7204;DHT22;3643;52.460;13.322;2022-09-09T05:36:31;13.60;99.90
7204;DHT22;3643;52.460;13.322;2022-09-09T05:39:00;13.60;99.90
7204;DHT22;3643;52.460;13.322;2022-09-09T05:41:28;13.70;99.90
7204;DHT22;3643;52.460;13.322;2022-09-09T05:43:58;13.70;99.90
7204;DHT22;3643;52.460;13.322;2022-09-09T05:46:28;13.80;99.90
7204;DHT22;3643;52.460;13.322;2022-09-09T05:48:57;14.40;99.90
7204;DHT22;3643;52.460;13.322;2022-09-09T05:51:28;15.50;99.90
7204;DHT22;3643;52.460;13.322;2022-09-09T05:53:57;16.00;99.90
7204;DHT22;3643;52.460;13.322;2022-09-09T05:56:28;16.80;99.90
7204;DHT22;3643;52.460;13.322;2022-09-09T05:58:56;18.00;99.90
7204;DHT22;3643;52.460;13.322;2022-09-09T06:01:28;18.90;99.90
7204;DHT22;3643;52.460;13.322;2022-09-09T06:03:58;19.90;99.90
7204;DHT22;3643;52.460;13.322;2022-09-09T06:06:31;20.00;99.90
7204;DHT22;3643;52.460;13.322;2022-09-09T06:09:05;20.90;99.90
7204;DHT22;3643;52.460;13.322;2022-09-09T06:11:38;20.80;99.90
7204;DHT22;3643;52.460;13.322;2022-09-09T06:14:07;21.30;99.90
7204;DHT22;3643;52.460;13.322;2022-09-09T06:16:35;21.60;99.90
7204;DHT22;3643;52.460;13.322;2022-09-09T06:19:05;22.40;99.90
7204;DHT22;3643;52.460;13.322;2022-09-09T06:21:36;22.90;99.90
7204;DHT22;3643;52.460;13.322;2022-09-09T06:24:05;23.10;99.90
7204;DHT22;3643;52.460;13.322;2022-09-09T06:26:36;23.70;99.90
7204;DHT22;3643;52.460;13.322;2022-09-09T06:29:04;24.60;99.90
7204;DHT22;3643;52.460;13.322;2022-09-09T06:31:34;23.30;99.90
7204;DHT22;3643;52.460;13.322;2022-09-09T06:34:05;21.80;99.90
7204;DHT22;3643;52.460;13.322;2022-09-09T06:36:37;20.40;99.90
7204;DHT22;3643;52.460;13.322;2022-09-09T06:39:06;19.70;99.90
7204;DHT22;3643;52.460;13.322;2022-09-09T06:41:41;18.60;99.90
7204;DHT22;3643;52.460;13.322;2022-09-09T06:44:10;18.10;99.90
7204;DHT22;3643;52.460;13.322;2022-09-09T06:46:39;18.20;99.90
7204;DHT22;3643;52.460;13.322;2022-09-09T06:49:08;19.30;99.90
7204;DHT22;3643;52.460;13.322;2022-09-09T06:51:38;20.10;99.90
7204;DHT22;3643;52.460;13.322;2022-09-09T06:54:10;21.00;99.90
7204;DHT22;3643;52.460;13.322;2022-09-09T06:56:41;22.30;99.90
7204;DHT22;3643;52.460;13.322;2022-09-09T06:59:10;24.00;99.90
7204;DHT22;3643;52.460;13.322;2022-09-09T07:01:40;24.90;99.90
7204;DHT22;3643;52.460;13.322;2022-09-09T07:04:09;24.90;99.90
7204;DHT22;3643;52.460;13.322;2022-09-09T07:06:42;25.30;99.90
7204;DHT22;3643;52.460;13.322;2022-09-09T07:09:13;25.50;99.90
7204;DHT22;3643;52.460;13.322;2022-09-09T07:11:43;26.80;99.90
7204;DHT22;3643;52.460;13.322;2022-09-09T07:14:12;26.00;99.90
7204;DHT22;3643;52.460;13.322;2022-09-09T07:16:41;25.90;99.90
7204;DHT22;3643;52.460;13.322;2022-09-09T07:19:10;26.20;99.90
7204;DHT22;3643;52.460;13.322;2022-09-09T07:21:40;26.50;99.90
7204;DHT22;3643;52.460;13.322;2022-09-09T07:24:09;25.50;99.90
7204;DHT22;3643;52.460;13.322;2022-09-09T07:26:40;26.60;99.90
7204;DHT22;3643;52.460;13.322;2022-09-09T07:29:09;27.70;99.90
7204;DHT22;3643;52.460;13.322;2022-09-09T07:31:46;28.60;99.90
7204;DHT22;3643;52.460;13.322;2022-09-09T07:34:15;27.60;99.90
7204;DHT22;3643;52.460;13.322;2022-09-09T07:36:45;27.60;99.90
7204;DHT22;3643;52.460;13.322;2022-09-09T07:39:14;27.10;99.90
7204;DHT22;3643;52.460;13.322;2022-09-09T07:41:50;28.20;99.90
7204;DHT22;3643;52.460;13.322;2022-09-09T07:44:22;30.40;99.90
7204;DHT22;3643;52.460;13.322;2022-09-09T07:46:51;31.60;97.70
7204;DHT22;3643;52.460;13.322;2022-09-09T07:49:20;30.90;97.10
7204;DHT22;3643;52.460;13.322;2022-09-09T07:52:00;31.50;97.10
7204;DHT22;3643;52.460;13.322;2022-09-09T07:54:29;32.60;96.30
7204;DHT22;3643;52.460;13.322;2022-09-09T07:56:58;32.40;95.00
7204;DHT22;3643;52.460;13.322;2022-09-09T07:59:27;31.20;95.00
7204;DHT22;3643;52.460;13.322;2022-09-09T08:01:57;28.90;96.40
7204;DHT22;3643;52.460;13.322;2022-09-09T08:04:26;28.20;98.00
7204;DHT22;3643;52.460;13.322;2022-09-09T08:06:56;26.90;99.10
7204;DHT22;3643;52.460;13.322;2022-09-09T08:09:28;25.00;99.90
7204;DHT22;3643;52.460;13.322;2022-09-09T08:11:59;24.30;99.90
7204;DHT22;3643;52.460;13.322;2022-09-09T08:14:28;23.30;99.90
7204;DHT22;3643;52.460;13.322;2022-09-09T08:16:57;22.80;99.90
7204;DHT22;3643;52.460;13.322;2022-09-09T08:19:26;22.50;99.90
7204;DHT22;3643;52.460;13.322;2022-09-09T08:21:56;21.60;99.90
7204;DHT22;3643;52.460;13.322;2022-09-09T08:24:26;21.70;99.90
7204;DHT22;3643;52.460;13.322;2022-09-09T08:26:55;21.90;99.90
7204;DHT22;3643;52.460;13.322;2022-09-09T08:29:23;22.10;99.90
7204;DHT22;3643;52.460;13.322;2022-09-09T08:31:53;22.20;99.90
7204;DHT22;3643;52.460;13.322;2022-09-09T08:34:23;22.30;99.90
7204;DHT22;3643;52.460;13.322;2022-09-09T08:36:54;21.90;99.90
7204;DHT22;3643;52.460;13.322;2022-09-09T08:39:22;22.00;99.90
7204;DHT22;3643;52.460;13.322;2022-09-09T08:42:28;22.00;99.90
7204;DHT22;3643;52.460;13.322;2022-09-09T08:45:19;22.00;99.90
7204;DHT22;3643;52.460;13.322;2022-09-09T08:50:46;21.90;99.90
7204;DHT22;3643;52.460;13.322;2022-09-09T08:53:19;21.70;99.90
7204;DHT22;3643;52.460;13.322;2022-09-09T08:55:51;21.50;99.90
7204;DHT22;3643;52.460;13.322;2022-09-09T08:58:25;21.50;99.90
7204;DHT22;3643;52.460;13.322;2022-09-09T09:01:18;21.20;99.90
7204;DHT22;3643;52.460;13.322;2022-09-09T09:03:56;21.00;99.90
7204;DHT22;3643;52.460;13.322;2022-09-09T09:06:39;20.60;99.90
7204;DHT22;3643;52.460;13.322;2022-09-09T09:09:15;20.70;99.90
7204;DHT22;3643;52.460;13.322;2022-09-09T09:11:49;20.80;99.90
7204;DHT22;3643;52.460;13.322;2022-09-09T09:14:21;20.90;99.90
7204;DHT22;3643;52.460;13.322;2022-09-09T09:16:53;20.80;99.90
7204;DHT22;3643;52.460;13.322;2022-09-09T09:19:23;20.80;99.90
7204;DHT22;3643;52.460;13.322;2022-09-09T09:21:58;21.00;99.90
7204;DHT22;3643;52.460;13.322;2022-09-09T09:24:45;21.50;99.90
7204;DHT22;3643;52.460;13.322;2022-09-09T09:27:19;22.20;99.90
7204;DHT22;3643;52.460;13.322;2022-09-09T09:29:52;22.50;99.90
7204;DHT22;3643;52.460;13.322;2022-09-09T09:32:51;22.70;99.90
7204;DHT22;3643;52.460;13.322;2022-09-09T09:35:21;22.70;99.90
7204;DHT22;3643;52.460;13.322;2022-09-09T09:37:50;22.50;99.90
7204;DHT22;3643;52.460;13.322;2022-09-09T09:40:48;22.50;99.90
7204;DHT22;3643;52.460;13.322;2022-09-09T09:43:21;22.50;99.90
7204;DHT22;3643;52.460;13.322;2022-09-09T09:45:53;22.20;99.90
7204;DHT22;3643;52.460;13.322;2022-09-09T09:48:42;22.20;99.90
7204;DHT22;3643;52.460;13.322;2022-09-09T09:51:13;21.50;99.90
7204;DHT22;3643;52.460;13.322;2022-09-09T09:53:45;21.30;99.90
7204;DHT22;3643;52.460;13.322;2022-09-09T09:56:16;21.10;99.90
7204;DHT22;3643;52.460;13.322;2022-09-09T09:58:54;21.20;99.90
7204;DHT22;3643;52.460;13.322;2022-09-09T10:01:26;21.30;99.90
7204;DHT22;3643;52.460;13.322;2022-09-09T10:03:58;21.50;99.90
7204;DHT22;3643;52.460;13.322;2022-09-09T10:06:31;21.40;99.90
7204;DHT22;3643;52.460;13.322;2022-09-09T10:09:01;21.40;99.90
7204;DHT22;3643;52.460;13.322;2022-09-09T10:11:41;21.40;99.90
7204;DHT22;3643;52.460;13.322;2022-09-09T10:14:19;21.50;99.90
7204;DHT22;3643;52.460;13.322;2022-09-09T10:17:01;21.70;99.90
7204;DHT22;3643;52.460;13.322;2022-09-09T10:19:35;22.00;99.90
7204;DHT22;3643;52.460;13.322;2022-09-09T10:22:24;22.10;99.90
7204;DHT22;3643;52.460;13.322;2022-09-09T10:25:25;22.20;99.90
7204;DHT22;3643;52.460;13.322;2022-09-09T10:28:29;22.20;99.90
7204;DHT22;3643;52.460;13.322;2022-09-09T10:31:13;21.90;99.90
7204;DHT22;3643;52.460;13.322;2022-09-09T10:33:50;21.80;99.90
7204;DHT22;3643;52.460;13.322;2022-09-09T10:36:21;21.70;99.90
7204;DHT22;3643;52.460;13.322;2022-09-09T10:38:57;21.80;99.90
7204;DHT22;3643;52.460;13.322;2022-09-09T10:41:39;21.80;99.90
7204;DHT22;3643;52.460;13.322;2022-09-09T10:44:21;22.00;99.90
7204;DHT22;3643;52.460;13.322;2022-09-09T10:47:12;21.80;99.90
7204;DHT22;3643;52.460;13.322;2022-09-09T10:50:13;21.80;99.90
7204;DHT22;3643;52.460;13.322;2022-09-09T10:52:54;21.90;99.90
7204;DHT22;3643;52.460;13.322;2022-09-09T10:55:27;22.00;99.90
7204;DHT22;3643;52.460;13.322;2022-09-09T10:57:58;22.10;99.90
7204;DHT22;3643;52.460;13.322;2022-09-09T11:00:41;22.40;99.90
7204;DHT22;3643;52.460;13.322;2022-09-09T11:03:21;22.50;99.90
7204;DHT22;3643;52.460;13.322;2022-09-09T11:05:55;22.50;99.90
7204;DHT22;3643;52.460;13.322;2022-09-09T11:08:26;22.40;99.90
7204;DHT22;3643;52.460;13.322;2022-09-09T11:11:00;22.50;99.90
7204;DHT22;3643;52.460;13.322;2022-09-09T11:13:35;22.50;99.90
7204;DHT22;3643;52.460;13.322;2022-09-09T11:16:15;22.60;99.90
7204;DHT22;3643;52.460;13.322;2022-09-09T11:18:46;22.70;99.90
7204;DHT22;3643;52.460;13.322;2022-09-09T11:21:21;22.90;99.90
7204;DHT22;3643;52.460;13.322;2022-09-09T11:23:54;23.00;99.90
7204;DHT22;3643;52.460;13.322;2022-09-09T11:26:30;23.10;99.90
7204;DHT22;3643;52.460;13.322;2022-09-09T11:29:14;22.90;99.90
7204;DHT22;3643;52.460;13.322;2022-09-09T11:31:57;23.00;99.90
7204;DHT22;3643;52.460;13.322;2022-09-09T11:34:43;23.10;99.90
7204;DHT22;3643;52.460;13.322;2022-09-09T11:40:23;23.30;99.90
7204;DHT22;3643;52.460;13.322;2022-09-09T11:43:04;23.20;99.90
7204;DHT22;3643;52.460;13.322;2022-09-09T11:45:35;23.20;99.90
7204;DHT22;3643;52.460;13.322;2022-09-09T11:48:04;23.10;99.90
7204;DHT22;3643;52.460;13.322;2022-09-09T11:50:35;23.30;99.90
7204;DHT22;3643;52.460;13.322;2022-09-09T11:53:22;23.40;99.90
7204;DHT22;3643;52.460;13.322;2022-09-09T11:56:02;23.40;99.90
7204;DHT22;3643;52.460;13.322;2022-09-09T11:58:42;23.40;99.90
7204;DHT22;3643;52.460;13.322;2022-09-09T12:01:14;23.40;99.90
7204;DHT22;3643;52.460;13.322;2022-09-09T12:03:46;23.50;99.90
7204;DHT22;3643;52.460;13.322;2022-09-09T12:06:19;23.50;99.90
7204;DHT22;3643;52.460;13.322;2022-09-09T12:08:58;23.50;99.90
7204;DHT22;3643;52.460;13.322;2022-09-09T12:11:33;23.50;99.90
7204;DHT22;3643;52.460;13.322;2022-09-09T12:14:02;23.20;99.90
7204;DHT22;3643;52.460;13.322;2022-09-09T12:16:33;23.00;99.90
7204;DHT22;3643;52.460;13.322;2022-09-09T12:19:14;23.10;99.90
7204;DHT22;3643;52.460;13.322;2022-09-09T12:21:49;23.10;99.90
7204;DHT22;3643;52.460;13.322;2022-09-09T12:24:27;23.20;99.90
7204;DHT22;3643;52.460;13.322;2022-09-09T12:27:05;23.30;99.90
7204;DHT22;3643;52.460;13.322;2022-09-09T12:29:41;23.30;99.90
7204;DHT22;3643;52.460;13.322;2022-09-09T12:32:12;23.00;99.90
7204;DHT22;3643;52.460;13.322;2022-09-09T12:34:46;22.90;99.90
7204;DHT22;3643;52.460;13.322;2022-09-09T12:37:21;22.90;99.90
7204;DHT22;3643;52.460;13.322;2022-09-09T12:39:56;22.90;99.90
7204;DHT22;3643;52.460;13.322;2022-09-09T12:42:26;22.90;99.90
7204;DHT22;3643;52.460;13.322;2022-09-09T12:44:56;23.00;99.90
7204;DHT22;3643;52.460;13.322;2022-09-09T12:47:30;23.10;99.90
7204;DHT22;3643;52.460;13.322;2022-09-09T12:50:02;23.10;99.90
7204;DHT22;3643;52.460;13.322;2022-09-09T12:52:32;23.10;99.90
7204;DHT22;3643;52.460;13.322;2022-09-09T12:55:06;23.10;99.90
7204;DHT22;3643;52.460;13.322;2022-09-09T12:57:38;23.20;99.90
7204;DHT22;3643;52.460;13.322;2022-09-09T13:00:13;23.40;99.90
7204;DHT22;3643;52.460;13.322;2022-09-09T13:02:47;23.20;99.90
7204;DHT22;3643;52.460;13.322;2022-09-09T13:05:19;24.70;99.90
7204;DHT22;3643;52.460;13.322;2022-09-09T13:07:48;23.20;99.90
7204;DHT22;3643;52.460;13.322;2022-09-09T13:10:24;23.20;99.90
7204;DHT22;3643;52.460;13.322;2022-09-09T13:13:14;23.20;99.90
7204;DHT22;3643;52.460;13.322;2022-09-09T13:15:50;23.10;99.90
7204;DHT22;3643;52.460;13.322;2022-09-09T13:18:22;23.30;99.90
7204;DHT22;3643;52.460;13.322;2022-09-09T13:20:51;23.30;99.90
7204;DHT22;3643;52.460;13.322;2022-09-09T13:23:21;23.10;99.90
7204;DHT22;3643;52.460;13.322;2022-09-09T13:25:56;23.10;99.90
7204;DHT22;3643;52.460;13.322;2022-09-09T13:28:26;23.30;99.90
7204;DHT22;3643;52.460;13.322;2022-09-09T13:31:02;23.30;99.90
7204;DHT22;3643;52.460;13.322;2022-09-09T13:33:33;23.50;99.90
7204;DHT22;3643;52.460;13.322;2022-09-09T13:36:05;23.50;99.90
7204;DHT22;3643;52.460;13.322;2022-09-09T13:38:38;23.70;99.90
7204;DHT22;3643;52.460;13.322;2022-09-09T13:41:09;22.20;99.90
7204;DHT22;3643;52.460;13.322;2022-09-09T13:43:43;24.20;99.90
7204;DHT22;3643;52.460;13.322;2022-09-09T13:46:25;24.30;99.90
7204;DHT22;3643;52.460;13.322;2022-09-09T13:48:57;24.40;99.90
7204;DHT22;3643;52.460;13.322;2022-09-09T13:51:33;24.30;99.90
7204;DHT22;3643;52.460;13.322;2022-09-09T13:54:04;24.20;99.90
7204;DHT22;3643;52.460;13.322;2022-09-09T13:56:36;24.40;99.90
7204;DHT22;3643;52.460;13.322;2022-09-09T13:59:09;24.50;99.90
7204;DHT22;3643;52.460;13.322;2022-09-09T14:01:38;24.60;99.90
7204;DHT22;3643;52.460;13.322;2022-09-09T14:04:08;24.70;99.90
7204;DHT22;3643;52.460;13.322;2022-09-09T14:06:38;24.50;99.90
7204;DHT22;3643;52.460;13.322;2022-09-09T14:09:09;24.40;99.90
7204;DHT22;3643;52.460;13.322;2022-09-09T14:11:40;24.50;99.90
7204;DHT22;3643;52.460;13.322;2022-09-09T14:14:10;24.30;99.80
7204;DHT22;3643;52.460;13.322;2022-09-09T14:16:38;24.40;99.90
7204;DHT22;3643;52.460;13.322;2022-09-09T14:19:08;24.50;99.80
7204;DHT22;3643;52.460;13.322;2022-09-09T14:21:37;24.60;99.80
7204;DHT22;3643;52.460;13.322;2022-09-09T14:24:06;24.20;99.20
7204;DHT22;3643;52.460;13.322;2022-09-09T14:26:34;24.30;99.90
7204;DHT22;3643;52.460;13.322;2022-09-09T14:29:05;24.50;99.90
7204;DHT22;3643;52.460;13.322;2022-09-09T14:31:33;24.50;99.20
7204;DHT22;3643;52.460;13.322;2022-09-09T14:34:02;24.40;99.30
7204;DHT22;3643;52.460;13.322;2022-09-09T14:36:31;24.50;99.90
7204;DHT22;3643;52.460;13.322;2022-09-09T14:39:00;24.40;99.90
7204;DHT22;3643;52.460;13.322;2022-09-09T14:41:28;24.10;99.90
7204;DHT22;3643;52.460;13.322;2022-09-09T14:43:57;24.00;99.90
7204;DHT22;3643;52.460;13.322;2022-09-09T14:46:28;23.80;99.90
7204;DHT22;3643;52.460;13.322;2022-09-09T14:48:56;23.70;99.90
7204;DHT22;3643;52.460;13.322;2022-09-09T14:51:26;23.60;99.90
7204;DHT22;3643;52.460;13.322;2022-09-09T14:53:56;23.60;99.90
7204;DHT22;3643;52.460;13.322;2022-09-09T14:56:27;23.50;99.90
7204;DHT22;3643;52.460;13.322;2022-09-09T14:58:57;23.40;99.90
7204;DHT22;3643;52.460;13.322;2022-09-09T15:01:30;23.40;99.90
7204;DHT22;3643;52.460;13.322;2022-09-09T15:04:01;23.30;99.90
7204;DHT22;3643;52.460;13.322;2022-09-09T15:06:33;23.10;99.90
7204;DHT22;3643;52.460;13.322;2022-09-09T15:09:03;22.90;99.90
7204;DHT22;3643;52.460;13.322;2022-09-09T15:11:34;22.80;99.90
7204;DHT22;3643;52.460;13.322;2022-09-09T15:14:05;22.90;99.90
7204;DHT22;3643;52.460;13.322;2022-09-09T15:16:37;23.00;99.90
7204;DHT22;3643;52.460;13.322;2022-09-09T15:19:06;23.10;99.90
7204;DHT22;3643;52.460;13.322;2022-09-09T15:21:37;23.20;99.90
7204;DHT22;3643;52.460;13.322;2022-09-09T15:24:06;23.10;99.90
7204;DHT22;3643;52.460;13.322;2022-09-09T15:26:35;23.10;99.90
7204;DHT22;3643;52.460;13.322;2022-09-09T15:29:05;23.10;99.90
7204;DHT22;3643;52.460;13.322;2022-09-09T15:31:37;23.10;99.90
7204;DHT22;3643;52.460;13.322;2022-09-09T15:34:06;23.10;99.90
7204;DHT22;3643;52.460;13.322;2022-09-09T15:36:37;23.10;99.90
7204;DHT22;3643;52.460;13.322;2022-09-09T15:39:08;23.00;99.90
7204;DHT22;3643;52.460;13.322;2022-09-09T15:41:40;22.90;99.90
7204;DHT22;3643;52.460;13.322;2022-09-09T15:44:09;22.80;99.90
7204;DHT22;3643;52.460;13.322;2022-09-09T15:46:42;22.80;99.90
7204;DHT22;3643;52.460;13.322;2022-09-09T15:49:13;22.70;99.90
7204;DHT22;3643;52.460;13.322;2022-09-09T15:51:44;22.60;99.90
7204;DHT22;3643;52.460;13.322;2022-09-09T15:54:15;22.70;99.90
7204;DHT22;3643;52.460;13.322;2022-09-09T15:56:45;22.70;99.90
7204;DHT22;3643;52.460;13.322;2022-09-09T15:59:15;22.70;99.90
7204;DHT22;3643;52.460;13.322;2022-09-09T16:01:45;22.60;99.90
7204;DHT22;3643;52.460;13.322;2022-09-09T16:04:14;22.70;99.90
7204;DHT22;3643;52.460;13.322;2022-09-09T16:06:51;22.60;99.90
7204;DHT22;3643;52.460;13.322;2022-09-09T16:09:20;22.60;99.90
7204;DHT22;3643;52.460;13.322;2022-09-09T16:11:48;22.60;99.90
7204;DHT22;3643;52.460;13.322;2022-09-09T16:14:20;22.60;99.90
7204;DHT22;3643;52.460;13.322;2022-09-09T16:16:50;22.50;99.90
7204;DHT22;3643;52.460;13.322;2022-09-09T16:19:19;22.50;99.90
7204;DHT22;3643;52.460;13.322;2022-09-09T16:21:49;22.50;99.90
7204;DHT22;3643;52.460;13.322;2022-09-09T16:24:19;22.50;99.90
7204;DHT22;3643;52.460;13.322;2022-09-09T16:26:50;22.40;99.90